createdAt,value
2023-03-21T00:01:53.557Z,8.30
2023-03-21T00:04:23.349Z,8.40
2023-03-21T00:06:51.440Z,8.30
2023-03-21T00:09:19.738Z,8.30
2023-03-21T00:11:48.202Z,8.30
2023-03-21T00:14:18.788Z,8.30
2023-03-21T00:16:50.390Z,8.40
2023-03-21T00:19:24.979Z,8.30
2023-03-21T00:22:11.009Z,8.30
2023-03-21T00:24:39.344Z,8.40
2023-03-21T00:27:38.372Z,8.30
2023-03-21T00:29:56.507Z,8.30
2023-03-21T00:32:24.630Z,8.30
2023-03-21T00:35:11.959Z,8.30
2023-03-21T00:37:43.126Z,8.40
2023-03-21T00:40:23.033Z,8.40
2023-03-21T00:42:53.641Z,8.40
2023-03-21T00:45:22.264Z,8.40
2023-03-21T00:47:50.540Z,8.40
2023-03-21T00:50:20.156Z,8.40
2023-03-21T00:52:49.201Z,8.40
2023-03-21T00:55:18.223Z,8.40
2023-03-21T00:57:50.208Z,8.40
2023-03-21T01:00:24.116Z,8.40
2023-03-21T01:03:04.426Z,8.40
2023-03-21T01:05:56.085Z,8.40
2023-03-21T01:08:31.007Z,8.40
2023-03-21T01:11:05.433Z,8.40
2023-03-21T01:13:36.358Z,8.40
2023-03-21T01:16:05.406Z,8.40
2023-03-21T01:18:33.826Z,8.40
2023-03-21T01:21:03.563Z,8.40
2023-03-21T01:23:31.520Z,8.40
2023-03-21T01:25:59.584Z,8.40
2023-03-21T01:28:29.024Z,8.40
2023-03-21T01:30:57.627Z,8.40
2023-03-21T01:33:25.679Z,8.40
2023-03-21T01:36:06.318Z,8.50
2023-03-21T01:38:41.587Z,8.40
2023-03-21T01:41:19.916Z,8.40
2023-03-21T01:43:48.501Z,8.40
2023-03-21T01:46:47.761Z,8.40
2023-03-21T01:49:21.672Z,8.40
2023-03-21T01:51:58.655Z,8.50
2023-03-21T01:54:33.069Z,8.40
2023-03-21T01:57:02.765Z,8.40
2023-03-21T01:59:32.085Z,8.50
2023-03-21T02:02:02.391Z,8.50
2023-03-21T02:04:30.416Z,8.50
2023-03-21T02:06:59.601Z,8.50
2023-03-21T02:09:29.885Z,8.50
2023-03-21T02:11:59.389Z,8.50
2023-03-21T02:14:33.835Z,8.50
2023-03-21T02:17:04.438Z,8.50
2023-03-21T02:19:53.424Z,8.50
2023-03-21T02:22:39.303Z,8.50
2023-03-21T02:25:24.748Z,8.50
2023-03-21T02:27:56.071Z,8.50
2023-03-21T02:30:49.090Z,8.50
2023-03-21T02:33:35.167Z,8.50
2023-03-21T02:36:18.681Z,8.50
2023-03-21T02:38:52.423Z,8.50
2023-03-21T02:41:25.449Z,8.50
2023-03-21T02:43:56.914Z,8.50
2023-03-21T02:46:39.884Z,8.50
2023-03-21T02:49:13.606Z,8.50
2023-03-21T02:51:42.676Z,8.50
2023-03-21T02:54:45.477Z,8.50
2023-03-21T02:57:02.106Z,8.60
2023-03-21T02:59:30.144Z,8.60
2023-03-21T03:01:59.507Z,8.60
2023-03-21T03:04:31.081Z,8.60
2023-03-21T03:07:12.689Z,8.50
2023-03-21T03:09:52.373Z,8.60
2023-03-21T03:12:23.882Z,8.60
2023-03-21T03:15:03.128Z,8.60
2023-03-21T03:17:46.406Z,8.60
2023-03-21T03:20:29.883Z,8.60
2023-03-21T03:23:01.805Z,8.60
2023-03-21T03:25:42.532Z,8.60
2023-03-21T03:28:12.639Z,8.60
2023-03-21T03:30:48.890Z,8.60
2023-03-21T03:33:23.566Z,8.60
2023-03-21T03:36:04.400Z,8.60
2023-03-21T03:38:33.852Z,8.60
2023-03-21T03:41:06.095Z,8.60
2023-03-21T03:43:36.677Z,8.60
2023-03-21T03:46:10.468Z,8.60
2023-03-21T03:48:46.342Z,8.60
2023-03-21T03:51:16.813Z,8.60
2023-03-21T03:53:46.587Z,8.60
2023-03-21T03:56:16.082Z,8.60
2023-03-21T03:58:46.045Z,8.60
2023-03-21T04:01:14.817Z,8.60
2023-03-21T04:03:50.647Z,8.70
2023-03-21T04:06:22.082Z,8.70
2023-03-21T04:08:51.014Z,8.70
2023-03-21T04:11:20.441Z,8.70
2023-03-21T04:13:48.468Z,8.70
2023-03-21T04:16:16.581Z,8.70
2023-03-21T04:18:44.673Z,8.70
2023-03-21T04:21:13.787Z,8.70
2023-03-21T04:23:42.101Z,8.70
2023-03-21T04:26:10.386Z,8.70
2023-03-21T04:28:40.841Z,8.70
2023-03-21T04:31:22.732Z,8.70
2023-03-21T04:33:53.388Z,8.70
2023-03-21T04:36:27.407Z,8.80
2023-03-21T04:38:57.189Z,8.70
2023-03-21T04:41:25.316Z,8.80
2023-03-21T04:43:54.853Z,8.80
2023-03-21T04:46:23.383Z,8.80
2023-03-21T04:48:51.599Z,8.80
2023-03-21T04:51:19.615Z,8.80
2023-03-21T04:53:49.272Z,8.80
2023-03-21T04:56:17.813Z,8.80
2023-03-21T04:58:47.021Z,8.80
2023-03-21T05:01:20.175Z,8.80
2023-03-21T05:03:48.354Z,8.80
2023-03-21T05:06:16.767Z,8.80
2023-03-21T05:08:44.901Z,8.80
2023-03-21T05:11:12.949Z,8.80
2023-03-21T05:13:41.505Z,8.90
2023-03-21T05:16:09.982Z,8.80
2023-03-21T05:18:39.675Z,8.80
2023-03-21T05:21:10.678Z,8.80
2023-03-21T05:23:39.262Z,8.90
2023-03-21T05:26:08.039Z,8.80
2023-03-21T05:28:36.872Z,8.90
2023-03-21T05:31:05.140Z,8.80
2023-03-21T05:33:33.258Z,8.90
2023-03-21T05:36:02.634Z,8.90
2023-03-21T05:38:31.128Z,8.90
2023-03-21T05:40:59.214Z,8.90
2023-03-21T05:43:27.238Z,8.90
2023-03-21T05:45:55.437Z,8.90
2023-03-21T05:48:23.578Z,8.90
2023-03-21T05:50:51.563Z,8.90
2023-03-21T05:53:23.169Z,8.90
2023-03-21T05:55:51.399Z,8.90
2023-03-21T05:58:19.395Z,8.90
2023-03-21T06:00:47.463Z,8.90
2023-03-21T06:03:16.171Z,8.90
2023-03-21T06:05:44.273Z,8.90
2023-03-21T06:08:12.339Z,8.90
2023-03-21T06:10:41.675Z,8.90
2023-03-21T06:13:09.656Z,8.90
2023-03-21T06:15:37.982Z,8.90
2023-03-21T06:18:06.157Z,8.90
2023-03-21T06:20:36.826Z,8.90
2023-03-21T06:23:04.852Z,8.90
2023-03-21T06:25:32.881Z,8.90
2023-03-21T06:28:02.237Z,8.90
2023-03-21T06:30:30.217Z,8.90
2023-03-21T06:32:58.277Z,8.90
2023-03-21T06:35:26.296Z,8.90
2023-03-21T06:37:54.277Z,8.90
2023-03-21T06:40:22.530Z,9.00
2023-03-21T06:42:50.761Z,8.90
2023-03-21T06:45:20.222Z,8.90
2023-03-21T06:47:48.259Z,9.00
2023-03-21T06:50:16.520Z,8.90
2023-03-21T06:52:44.705Z,8.90
2023-03-21T06:55:12.690Z,9.00
2023-03-21T06:57:43.656Z,9.00
2023-03-21T07:00:12.625Z,8.90
2023-03-21T07:02:42.019Z,9.00
2023-03-21T07:05:10.326Z,9.00
2023-03-21T07:07:38.614Z,9.00
2023-03-21T07:10:07.075Z,9.00
2023-03-21T07:12:35.952Z,9.00
2023-03-21T07:15:04.811Z,9.00
2023-03-21T07:17:32.766Z,9.00
2023-03-21T07:20:02.292Z,9.00
2023-03-21T07:22:32.136Z,9.00
2023-03-21T07:25:05.206Z,9.00
2023-03-21T07:27:37.365Z,9.00
2023-03-21T07:30:06.718Z,9.00
2023-03-21T07:32:34.961Z,9.00
2023-03-21T07:35:04.317Z,9.00
2023-03-21T07:37:32.291Z,9.00
2023-03-21T07:40:00.350Z,9.00
2023-03-21T07:42:28.334Z,9.00
2023-03-21T07:44:56.418Z,9.00
2023-03-21T07:47:24.389Z,9.10
2023-03-21T07:49:52.496Z,9.00
2023-03-21T07:52:24.611Z,9.10
2023-03-21T07:54:52.641Z,9.10
2023-03-21T07:57:20.752Z,9.20
2023-03-21T07:59:51.569Z,9.10
2023-03-21T08:02:21.037Z,9.10
2023-03-21T08:04:51.107Z,9.20
2023-03-21T08:07:19.122Z,9.20
2023-03-21T08:09:48.560Z,9.20
2023-03-21T08:12:16.830Z,9.20
2023-03-21T08:14:44.882Z,9.20
2023-03-21T08:17:12.884Z,9.20
2023-03-21T08:19:40.961Z,9.20
2023-03-21T08:22:10.863Z,9.30
2023-03-21T08:24:38.857Z,9.30
2023-03-21T08:27:08.322Z,9.30
2023-03-21T08:29:40.491Z,9.30
2023-03-21T08:32:08.833Z,9.30
2023-03-21T08:34:37.244Z,9.30
2023-03-21T08:37:05.255Z,9.30
2023-03-21T08:39:33.263Z,9.40
2023-03-21T08:42:01.318Z,9.40
2023-03-21T08:44:30.630Z,9.40
2023-03-21T08:46:58.930Z,9.40
2023-03-21T08:49:27.010Z,9.40
2023-03-21T08:51:56.646Z,9.40
2023-03-21T08:54:24.923Z,9.40
2023-03-21T08:56:52.906Z,9.40
2023-03-21T08:59:20.936Z,9.40
2023-03-21T09:01:50.559Z,9.40
2023-03-21T09:04:18.901Z,9.40
2023-03-21T09:06:48.198Z,9.40
2023-03-21T09:09:16.698Z,9.40
2023-03-21T09:11:44.683Z,9.40
2023-03-21T09:14:12.911Z,9.40
2023-03-21T09:16:41.283Z,9.40
2023-03-21T09:19:10.737Z,9.40
2023-03-21T09:21:40.364Z,9.40
2023-03-21T09:24:08.904Z,9.40
2023-03-21T09:26:36.979Z,9.40
2023-03-21T09:29:05.852Z,9.50
2023-03-21T09:31:34.179Z,9.50
2023-03-21T09:34:03.973Z,9.60
2023-03-21T09:36:35.347Z,9.60
2023-03-21T09:39:04.189Z,9.60
2023-03-21T09:41:41.074Z,9.60
2023-03-21T09:44:15.276Z,9.60
2023-03-21T09:46:46.006Z,9.60
2023-03-21T09:49:17.652Z,9.60
2023-03-21T09:51:51.120Z,9.60
2023-03-21T09:54:22.362Z,9.60
2023-03-21T09:56:51.920Z,9.60
2023-03-21T09:59:22.501Z,9.60
2023-03-21T10:01:52.513Z,9.60
2023-03-21T10:04:20.629Z,9.60
2023-03-21T10:06:55.061Z,9.60
2023-03-21T10:09:24.740Z,9.70
2023-03-21T10:11:55.475Z,9.70
2023-03-21T10:14:25.630Z,9.70
2023-03-21T10:16:56.711Z,9.70
2023-03-21T10:19:25.169Z,9.70
2023-03-21T10:22:03.661Z,9.70
2023-03-21T10:24:34.228Z,9.80
2023-03-21T10:27:05.566Z,9.80
2023-03-21T10:29:37.103Z,9.80
2023-03-21T10:32:05.482Z,9.80
2023-03-21T10:34:36.949Z,9.80
2023-03-21T10:37:06.688Z,9.80
2023-03-21T10:39:36.077Z,9.80
2023-03-21T10:42:04.329Z,9.80
2023-03-21T10:44:32.707Z,9.80
2023-03-21T10:47:05.095Z,9.80
2023-03-21T10:49:40.703Z,9.80
2023-03-21T10:52:21.146Z,9.90
2023-03-21T10:54:49.605Z,9.90
2023-03-21T10:57:20.937Z,10.00
2023-03-21T10:59:53.751Z,10.00
2023-03-21T11:02:25.831Z,10.00
2023-03-21T11:04:54.374Z,10.00
2023-03-21T11:07:26.014Z,10.00
2023-03-21T11:09:55.532Z,10.10
2023-03-21T11:12:30.351Z,10.10
2023-03-21T11:14:58.362Z,10.10
2023-03-21T11:17:29.356Z,10.20
2023-03-21T11:19:59.156Z,10.10
2023-03-21T11:22:30.875Z,10.20
2023-03-21T11:25:00.367Z,10.20
2023-03-21T11:27:30.085Z,10.20
2023-03-21T11:29:59.851Z,10.20
2023-03-21T11:32:36.167Z,10.20
2023-03-21T11:35:06.225Z,10.20
2023-03-21T11:37:39.719Z,10.20
2023-03-21T11:40:12.173Z,10.20
2023-03-21T11:42:43.361Z,10.20
2023-03-21T11:45:15.413Z,10.30
2023-03-21T11:47:43.456Z,10.20
2023-03-21T11:50:22.213Z,10.30
2023-03-21T11:52:57.891Z,10.30
2023-03-21T11:55:32.654Z,10.30
2023-03-21T11:58:14.228Z,10.30
2023-03-21T12:00:46.707Z,10.20
2023-03-21T12:03:23.843Z,10.20
2023-03-21T12:05:54.379Z,10.20
2023-03-21T12:08:29.018Z,10.20
2023-03-21T12:11:01.035Z,10.20
2023-03-21T12:13:44.912Z,10.20
2023-03-21T12:16:21.290Z,10.20
2023-03-21T12:19:01.036Z,10.20
2023-03-21T12:21:34.295Z,10.20
2023-03-21T12:24:07.025Z,10.30
2023-03-21T12:26:41.560Z,10.20
2023-03-21T12:29:24.396Z,10.20
2023-03-21T12:31:56.835Z,10.20
2023-03-21T12:34:31.042Z,10.20
2023-03-21T12:37:07.156Z,10.20
2023-03-21T12:39:39.517Z,10.20
2023-03-21T12:42:18.793Z,10.20
2023-03-21T12:44:48.793Z,10.20
2023-03-21T12:47:18.210Z,10.20
2023-03-21T12:49:48.834Z,10.20
2023-03-21T12:52:20.289Z,10.30
2023-03-21T12:54:51.255Z,10.30
2023-03-21T12:57:21.258Z,10.30
2023-03-21T12:59:51.533Z,10.30
2023-03-21T13:02:21.465Z,10.30
2023-03-21T13:04:53.458Z,10.30
2023-03-21T13:07:23.122Z,10.40
2023-03-21T13:09:55.057Z,10.40
2023-03-21T13:12:30.373Z,10.40
2023-03-21T13:15:07.889Z,10.40
2023-03-21T13:17:40.166Z,10.40
2023-03-21T13:20:14.124Z,10.40
2023-03-21T13:22:42.197Z,10.40
2023-03-21T13:25:18.458Z,10.40
2023-03-21T13:27:52.707Z,10.40
2023-03-21T13:30:22.231Z,10.40
2023-03-21T13:32:50.768Z,10.40
2023-03-21T13:35:21.557Z,10.40
2023-03-21T13:37:52.661Z,10.40
2023-03-21T13:40:23.389Z,10.40
2023-03-21T13:42:57.035Z,10.50
2023-03-21T13:45:27.872Z,10.50
2023-03-21T13:47:57.244Z,10.50
2023-03-21T13:50:27.034Z,10.60
2023-03-21T13:53:11.746Z,10.60
2023-03-21T13:55:44.483Z,10.60
2023-03-21T13:58:25.368Z,10.60
2023-03-21T14:01:07.951Z,10.60
2023-03-21T14:03:36.278Z,10.60
2023-03-21T14:06:04.433Z,10.60
2023-03-21T14:08:37.557Z,10.60
2023-03-21T14:11:08.830Z,10.70
2023-03-21T14:13:48.334Z,10.60
2023-03-21T14:16:19.432Z,10.60
2023-03-21T14:18:54.456Z,10.60
2023-03-21T14:21:25.303Z,10.60
2023-03-21T14:23:57.290Z,10.70
2023-03-21T14:26:27.170Z,10.70
2023-03-21T14:28:55.375Z,10.70
2023-03-21T14:31:23.474Z,10.70
2023-03-21T14:33:53.981Z,10.70
2023-03-21T14:36:24.532Z,10.60
2023-03-21T14:39:03.374Z,10.70
2023-03-21T14:41:33.550Z,10.60
2023-03-21T14:44:16.503Z,10.70
2023-03-21T14:46:47.492Z,10.70
2023-03-21T14:49:19.810Z,10.60
2023-03-21T14:51:47.923Z,10.60
2023-03-21T14:54:18.153Z,10.70
2023-03-21T14:56:49.704Z,10.70
2023-03-21T14:59:18.711Z,10.60
2023-03-21T15:01:47.128Z,10.60
2023-03-21T15:04:16.203Z,10.60
2023-03-21T15:06:54.684Z,10.60
2023-03-21T15:09:24.671Z,10.60
2023-03-21T15:11:54.577Z,10.60
2023-03-21T15:14:25.982Z,10.60
2023-03-21T15:16:54.434Z,10.70
2023-03-21T15:19:28.177Z,10.70
2023-03-21T15:21:57.992Z,10.70
2023-03-21T15:24:27.794Z,10.70
2023-03-21T15:26:59.269Z,10.80
2023-03-21T15:29:27.597Z,10.80
2023-03-21T15:31:59.213Z,10.80
2023-03-21T15:34:29.353Z,10.80
2023-03-21T15:36:58.774Z,10.80
2023-03-21T15:39:28.898Z,10.80
2023-03-21T15:41:59.203Z,10.80
2023-03-21T15:44:27.771Z,10.90
2023-03-21T15:46:55.884Z,10.90
2023-03-21T15:49:27.260Z,10.90
2023-03-21T15:51:57.930Z,10.90
2023-03-21T15:54:27.364Z,11.00
2023-03-21T15:56:55.924Z,11.00
2023-03-21T15:59:28.134Z,11.00
2023-03-21T16:01:56.212Z,11.00
2023-03-21T16:04:24.419Z,11.10
2023-03-21T16:06:53.596Z,11.10
2023-03-21T16:09:23.481Z,11.00
2023-03-21T16:11:52.321Z,11.10
2023-03-21T16:14:20.726Z,11.20
2023-03-21T16:16:50.950Z,11.30
2023-03-21T16:19:19.264Z,11.30
2023-03-21T16:21:47.473Z,11.40
2023-03-21T16:24:18.619Z,11.40
2023-03-21T16:26:50.759Z,11.50
2023-03-21T16:29:19.828Z,11.50
2023-03-21T16:31:48.596Z,11.50
2023-03-21T16:34:18.201Z,11.50
2023-03-21T16:36:46.215Z,11.50
2023-03-21T16:39:19.065Z,11.50
2023-03-21T16:41:47.265Z,11.50
2023-03-21T16:44:15.449Z,11.50
2023-03-21T16:46:43.794Z,11.60
2023-03-21T16:49:24.688Z,11.60
2023-03-21T16:51:53.053Z,11.60
2023-03-21T16:54:21.304Z,11.60
2023-03-21T16:56:50.572Z,11.50
2023-03-21T16:59:18.599Z,11.50
2023-03-21T17:01:48.201Z,11.50
2023-03-21T17:04:16.506Z,11.50
2023-03-21T17:06:47.457Z,11.50
2023-03-21T17:09:16.749Z,11.40
2023-03-21T17:11:44.790Z,11.40
2023-03-21T17:14:13.467Z,11.40
2023-03-21T17:16:43.053Z,11.30
2023-03-21T17:19:12.966Z,11.30
2023-03-21T17:21:40.981Z,11.30
2023-03-21T17:24:10.652Z,11.30
2023-03-21T17:26:38.857Z,11.30
2023-03-21T17:29:07.336Z,11.30
2023-03-21T17:31:36.211Z,11.20
2023-03-21T17:34:04.631Z,11.20
2023-03-21T17:36:33.583Z,11.20
2023-03-21T17:39:01.655Z,11.20
2023-03-21T17:41:31.018Z,11.20
2023-03-21T17:43:59.035Z,11.20
2023-03-21T17:46:31.210Z,11.20
2023-03-21T17:48:59.263Z,11.20
2023-03-21T17:51:30.164Z,11.20
2023-03-21T17:53:58.210Z,11.10
2023-03-21T17:56:29.873Z,11.10
2023-03-21T17:59:02.609Z,11.10
2023-03-21T18:01:31.829Z,11.10
2023-03-21T18:04:02.151Z,11.10
2023-03-21T18:06:30.198Z,11.10
2023-03-21T18:08:59.706Z,11.10
2023-03-21T18:11:28.613Z,11.10
2023-03-21T18:14:06.791Z,11.10
2023-03-21T18:16:44.631Z,11.10
2023-03-21T18:19:15.474Z,11.10
2023-03-21T18:21:45.323Z,11.10
2023-03-21T18:24:14.365Z,11.10
2023-03-21T18:26:42.541Z,11.10
2023-03-21T18:32:06.697Z,11.00
2023-03-21T18:34:35.956Z,11.10
2023-03-21T18:37:04.489Z,11.10
2023-03-21T18:39:33.179Z,11.10
2023-03-21T18:42:02.612Z,11.10
2023-03-21T18:44:39.054Z,11.10
2023-03-21T18:47:08.917Z,11.10
2023-03-21T18:52:26.482Z,11.10
2023-03-21T18:54:54.624Z,11.00
2023-03-21T18:57:39.937Z,11.00
2023-03-21T19:00:12.653Z,11.00
2023-03-21T19:02:46.702Z,11.00
2023-03-21T19:05:16.672Z,11.00
2023-03-21T19:07:44.699Z,11.00
2023-03-21T19:10:18.003Z,11.10
2023-03-21T19:12:46.945Z,11.10
2023-03-21T19:15:17.790Z,11.00
2023-03-21T19:20:35.460Z,11.00
2023-03-21T19:23:03.487Z,11.00
2023-03-21T19:25:31.506Z,11.00
2023-03-21T19:27:59.621Z,11.00
2023-03-21T19:30:27.912Z,10.90
2023-03-21T19:32:57.295Z,10.90
2023-03-21T19:35:25.361Z,10.90
2023-03-21T19:37:53.337Z,10.80
2023-03-21T19:40:21.490Z,10.80
2023-03-21T19:42:49.502Z,10.80
2023-03-21T19:45:17.655Z,10.80
2023-03-21T19:47:46.234Z,10.80
2023-03-21T19:50:47.399Z,10.80
2023-03-21T19:53:04.084Z,10.70
2023-03-21T19:55:32.340Z,10.70
2023-03-21T19:58:00.376Z,10.70
2023-03-21T20:00:28.430Z,10.70
2023-03-21T20:02:56.911Z,10.70
2023-03-21T20:05:26.392Z,10.60
2023-03-21T20:07:55.412Z,10.60
2023-03-21T20:10:23.754Z,10.60
2023-03-21T20:12:51.875Z,10.60
2023-03-21T20:15:21.910Z,10.60
2023-03-21T20:17:51.361Z,10.60
2023-03-21T20:20:19.513Z,10.60
2023-03-21T20:23:08.042Z,10.50
2023-03-21T20:25:36.895Z,10.50
2023-03-21T20:28:26.044Z,10.50
2023-03-21T20:30:54.038Z,10.50
2023-03-21T20:33:22.131Z,10.50
2023-03-21T20:38:40.758Z,10.50
2023-03-21T20:41:08.850Z,10.50
2023-03-21T20:44:25.542Z,10.50
2023-03-21T20:46:24.877Z,10.40
2023-03-21T20:48:53.008Z,10.40
2023-03-21T20:54:11.232Z,10.40
2023-03-21T20:56:41.338Z,10.30
2023-03-21T20:59:23.086Z,10.30
2023-03-21T21:01:57.369Z,10.30
2023-03-21T21:07:17.702Z,10.30
2023-03-21T21:09:47.421Z,10.30
2023-03-21T21:12:16.451Z,10.30
2023-03-21T21:14:45.405Z,10.30
2023-03-21T21:20:02.311Z,10.30
2023-03-21T21:22:30.364Z,10.30
2023-03-21T21:24:59.856Z,10.20
2023-03-21T21:27:28.559Z,10.20
2023-03-21T21:29:57.601Z,10.20
2023-03-21T21:32:25.557Z,10.20
2023-03-21T21:34:53.698Z,10.20
2023-03-21T21:37:22.567Z,10.20
2023-03-21T21:39:50.640Z,10.20
2023-03-21T21:42:20.006Z,10.20
2023-03-21T21:44:50.139Z,10.20
2023-03-21T21:47:18.129Z,10.20
2023-03-21T21:49:46.181Z,10.20
2023-03-21T21:52:21.935Z,10.20
2023-03-21T21:54:50.529Z,10.20
2023-03-21T21:57:22.741Z,10.20
2023-03-21T21:59:54.374Z,10.20
2023-03-21T22:02:25.390Z,10.20
2023-03-21T22:04:54.997Z,10.10
2023-03-21T22:07:25.323Z,10.10
2023-03-21T22:09:53.542Z,10.10
2023-03-21T22:12:22.913Z,10.10
2023-03-21T22:14:51.044Z,10.10
2023-03-21T22:17:19.023Z,10.10
2023-03-21T22:20:02.561Z,10.10
2023-03-21T22:22:32.954Z,10.10
2023-03-21T22:25:00.918Z,10.10
2023-03-21T22:27:30.484Z,10.10
2023-03-21T22:30:04.265Z,10.10
2023-03-21T22:32:32.316Z,10.20
2023-03-21T22:35:02.302Z,10.10
2023-03-21T22:37:30.592Z,10.10
2023-03-21T22:39:58.634Z,10.20
2023-03-21T22:42:26.884Z,10.10
2023-03-21T22:44:56.312Z,10.20
2023-03-21T22:47:25.471Z,10.20
2023-03-21T22:49:53.455Z,10.20
2023-03-21T22:52:21.418Z,10.20
2023-03-21T22:54:49.838Z,10.20
2023-03-21T22:57:18.376Z,10.10
2023-03-21T22:59:46.428Z,10.10
2023-03-21T23:02:19.036Z,10.10
2023-03-21T23:04:47.106Z,10.10
2023-03-21T23:07:15.601Z,10.10
2023-03-21T23:09:43.786Z,10.10
2023-03-21T23:12:11.805Z,10.10
2023-03-21T23:14:39.785Z,10.00
2023-03-21T23:17:10.027Z,10.00
2023-03-21T23:19:41.058Z,10.00
2023-03-21T23:22:09.896Z,10.00
2023-03-21T23:24:37.930Z,9.90
2023-03-21T23:27:06.042Z,9.90
2023-03-21T23:29:34.081Z,9.90
2023-03-21T23:32:02.164Z,9.90
2023-03-21T23:34:31.576Z,9.80
2023-03-21T23:37:01.079Z,9.80
2023-03-21T23:39:29.253Z,9.80
2023-03-21T23:41:58.612Z,9.80
2023-03-21T23:44:26.613Z,9.70
2023-03-21T23:46:54.972Z,9.80
2023-03-21T23:49:22.996Z,9.70
2023-03-21T23:51:52.631Z,9.70
2023-03-21T23:54:22.094Z,9.60
2023-03-21T23:56:50.095Z,9.60
2023-03-21T23:59:18.060Z,9.60
